createdAt,value
2018-07-09T00:01:34.469Z,20.08
2018-07-09T00:04:01.644Z,20.09
2018-07-09T00:06:28.846Z,20.06
2018-07-09T00:08:55.941Z,20.02
2018-07-09T00:11:23.091Z,19.96
2018-07-09T00:13:50.204Z,19.95
2018-07-09T00:16:17.337Z,19.86
2018-07-09T00:18:44.501Z,19.77
2018-07-09T00:21:11.681Z,19.73
2018-07-09T00:23:38.807Z,19.65
2018-07-09T00:26:05.968Z,19.51
2018-07-09T00:28:33.081Z,19.37
2018-07-09T00:31:00.208Z,19.26
2018-07-09T00:33:27.346Z,19.19
2018-07-09T00:35:54.453Z,19.11
2018-07-09T00:38:21.559Z,19.07
2018-07-09T00:40:48.715Z,18.93
2018-07-09T00:43:15.998Z,18.91
2018-07-09T00:45:43.195Z,18.86
2018-07-09T00:48:10.620Z,18.78
2018-07-09T00:50:37.792Z,18.76
2018-07-09T00:53:04.960Z,18.60
2018-07-09T00:55:32.395Z,18.55
2018-07-09T00:57:59.553Z,18.49
2018-07-09T01:00:26.644Z,18.47
2018-07-09T01:02:53.840Z,18.47
2018-07-09T01:05:21.038Z,18.52
2018-07-09T01:07:48.215Z,18.66
2018-07-09T01:10:15.935Z,18.69
2018-07-09T01:12:43.138Z,18.72
2018-07-09T01:15:10.268Z,18.71
2018-07-09T01:17:37.440Z,18.73
2018-07-09T01:20:04.633Z,18.72
2018-07-09T01:22:32.007Z,18.79
2018-07-09T01:24:59.144Z,18.70
2018-07-09T01:27:26.249Z,18.85
2018-07-09T01:29:53.786Z,18.79
2018-07-09T01:32:20.902Z,18.87
2018-07-09T01:34:48.047Z,18.94
2018-07-09T01:37:15.232Z,18.99
2018-07-09T01:39:42.369Z,18.95
2018-07-09T01:42:09.474Z,18.80
2018-07-09T01:44:36.618Z,18.70
2018-07-09T01:47:04.211Z,18.64
2018-07-09T01:49:31.411Z,18.58
2018-07-09T01:51:58.536Z,18.50
2018-07-09T01:54:25.724Z,18.43
2018-07-09T01:56:52.829Z,18.36
2018-07-09T01:59:19.932Z,18.44
2018-07-09T02:01:47.123Z,18.40
2018-07-09T02:04:14.308Z,18.38
2018-07-09T02:06:41.800Z,18.40
2018-07-09T02:09:09.180Z,18.55
2018-07-09T02:11:36.629Z,18.56
2018-07-09T02:14:03.791Z,18.48
2018-07-09T02:16:30.936Z,18.25
2018-07-09T02:19:02.206Z,18.23
2018-07-09T02:21:29.344Z,18.13
2018-07-09T02:23:56.524Z,18.05
2018-07-09T02:26:23.637Z,17.92
2018-07-09T02:28:50.763Z,17.93
2018-07-09T02:31:17.926Z,17.95
2018-07-09T02:33:45.089Z,17.97
2018-07-09T02:36:12.203Z,17.74
2018-07-09T02:38:39.344Z,17.64
2018-07-09T02:41:06.500Z,17.65
2018-07-09T02:43:33.585Z,17.68
2018-07-09T02:46:00.764Z,17.52
2018-07-09T02:48:27.848Z,17.51
2018-07-09T02:50:55.075Z,17.42
2018-07-09T02:53:22.265Z,17.37
2018-07-09T02:55:49.363Z,17.28
2018-07-09T02:58:16.475Z,17.17
2018-07-09T03:00:43.794Z,17.15
2018-07-09T03:03:10.857Z,17.07
2018-07-09T03:05:38.078Z,17.06
2018-07-09T03:08:05.434Z,17.10
2018-07-09T03:10:32.577Z,17.03
2018-07-09T03:12:59.760Z,16.89
2018-07-09T03:15:26.901Z,16.81
2018-07-09T03:17:53.991Z,16.76
2018-07-09T03:20:21.075Z,16.67
2018-07-09T03:22:48.272Z,16.65
2018-07-09T03:25:15.390Z,16.67
2018-07-09T03:27:42.540Z,16.63
2018-07-09T03:30:09.825Z,16.77
2018-07-09T03:32:36.923Z,16.70
2018-07-09T03:35:04.085Z,16.77
2018-07-09T03:37:31.272Z,16.74
2018-07-09T03:39:58.363Z,16.76
2018-07-09T03:42:25.481Z,16.80
2018-07-09T03:44:52.628Z,16.78
2018-07-09T03:47:19.754Z,16.80
2018-07-09T03:49:46.855Z,16.88
2018-07-09T03:52:13.989Z,16.80
2018-07-09T03:54:41.242Z,16.83
2018-07-09T03:57:08.817Z,16.85
2018-07-09T03:59:36.434Z,16.81
2018-07-09T04:02:03.895Z,16.91
2018-07-09T04:04:31.882Z,16.86
2018-07-09T04:06:59.119Z,16.92
2018-07-09T04:09:26.709Z,16.96
2018-07-09T04:11:53.816Z,17.02
2018-07-09T04:14:21.011Z,17.05
2018-07-09T04:16:48.107Z,16.95
2018-07-09T04:19:15.212Z,16.99
2018-07-09T04:21:42.344Z,17.02
2018-07-09T04:24:09.466Z,17.10
2018-07-09T04:26:36.557Z,17.06
2018-07-09T04:29:03.711Z,17.08
2018-07-09T04:31:30.834Z,17.08
2018-07-09T04:33:57.937Z,17.16
2018-07-09T04:36:25.149Z,17.06
2018-07-09T04:38:52.353Z,17.15
2018-07-09T04:41:19.454Z,17.16
2018-07-09T04:43:46.627Z,17.05
2018-07-09T04:46:13.812Z,17.19
2018-07-09T04:48:40.916Z,17.18
2018-07-09T04:51:08.102Z,17.11
2018-07-09T04:53:35.228Z,17.21
2018-07-09T04:56:02.303Z,17.19
2018-07-09T04:58:29.544Z,17.27
2018-07-09T05:00:56.665Z,17.28
2018-07-09T05:03:23.796Z,17.33
2018-07-09T05:05:51.073Z,17.45
2018-07-09T05:08:18.254Z,17.48
2018-07-09T05:10:45.578Z,17.38
2018-07-09T05:13:13.325Z,17.47
2018-07-09T05:15:40.471Z,17.56
2018-07-09T05:18:07.632Z,17.60
2018-07-09T05:20:34.903Z,17.69
2018-07-09T05:23:02.705Z,17.80
2018-07-09T05:25:29.800Z,17.87
2018-07-09T05:27:57.492Z,17.95
2018-07-09T05:30:24.671Z,17.92
2018-07-09T05:32:51.874Z,18.07
2018-07-09T05:35:19.240Z,18.11
2018-07-09T05:37:46.876Z,18.11
2018-07-09T05:40:14.899Z,18.13
2018-07-09T05:42:42.325Z,17.99
2018-07-09T05:45:09.515Z,18.07
2018-07-09T05:47:36.663Z,18.09
2018-07-09T05:50:04.224Z,18.07
2018-07-09T05:52:31.460Z,18.13
2018-07-09T05:54:58.834Z,18.25
2018-07-09T05:57:26.136Z,18.21
2018-07-09T05:59:53.483Z,18.12
2018-07-09T06:02:20.764Z,18.19
2018-07-09T06:04:48.155Z,18.30
2018-07-09T06:07:15.771Z,18.42
2018-07-09T06:09:43.892Z,18.44
2018-07-09T06:12:11.124Z,18.44
2018-07-09T06:14:38.249Z,18.46
2018-07-09T06:17:06.459Z,18.58
2018-07-09T06:19:34.014Z,18.60
2018-07-09T06:22:01.156Z,18.66
2018-07-09T06:24:28.312Z,18.73
2018-07-09T06:26:56.016Z,18.74
2018-07-09T06:29:23.207Z,18.63
2018-07-09T06:31:50.730Z,18.72
2018-07-09T06:34:18.325Z,18.75
2018-07-09T06:36:46.172Z,18.88
2018-07-09T06:39:13.833Z,19.01
2018-07-09T06:41:41.056Z,19.08
2018-07-09T06:44:08.168Z,19.18
2018-07-09T06:46:35.399Z,19.15
2018-07-09T06:49:02.572Z,19.35
2018-07-09T06:51:29.736Z,19.35
2018-07-09T06:53:57.189Z,19.50
2018-07-09T06:56:24.416Z,19.66
2018-07-09T06:58:51.825Z,19.77
2018-07-09T07:01:19.207Z,19.76
2018-07-09T07:03:46.508Z,19.79
2018-07-09T07:06:14.816Z,19.95
2018-07-09T07:08:43.154Z,19.92
2018-07-09T07:11:10.470Z,20.14
2018-07-09T07:13:37.645Z,20.28
2018-07-09T07:16:04.872Z,20.19
2018-07-09T07:18:32.595Z,20.31
2018-07-09T07:20:59.802Z,20.43
2018-07-09T07:23:26.854Z,20.51
2018-07-09T07:25:54.001Z,20.54
2018-07-09T07:28:21.531Z,20.46
2018-07-09T07:30:48.804Z,20.35
2018-07-09T07:33:16.372Z,20.56
2018-07-09T07:35:44.895Z,20.69
2018-07-09T07:38:13.183Z,20.69
2018-07-09T07:40:40.435Z,20.67
2018-07-09T07:43:07.539Z,20.75
2018-07-09T07:45:34.873Z,21.10
2018-07-09T07:48:02.209Z,21.10
2018-07-09T07:50:29.416Z,21.25
2018-07-09T07:52:56.449Z,21.19
2018-07-09T07:55:23.699Z,21.52
2018-07-09T07:57:51.470Z,21.37
2018-07-09T08:00:18.862Z,21.46
2018-07-09T08:02:46.793Z,21.65
2018-07-09T08:05:14.576Z,21.76
2018-07-09T08:07:45.625Z,21.98
2018-07-09T08:10:14.770Z,21.74
2018-07-09T08:13:27.170Z,22.17
2018-07-09T08:15:09.468Z,22.15
2018-07-09T08:17:36.776Z,21.93
2018-07-09T08:20:04.131Z,22.33
2018-07-09T08:22:31.250Z,22.58
2018-07-09T08:24:58.589Z,22.69
2018-07-09T08:27:25.675Z,23.06
2018-07-09T08:29:52.796Z,23.26
2018-07-09T08:32:20.065Z,23.76
2018-07-09T08:34:47.281Z,23.88
2018-07-09T08:37:15.045Z,23.48
2018-07-09T08:39:42.267Z,23.01
2018-07-09T08:42:10.212Z,22.79
2018-07-09T08:44:39.172Z,22.30
2018-07-09T08:47:06.403Z,22.22
2018-07-09T08:49:33.522Z,22.25
2018-07-09T08:52:00.716Z,22.32
2018-07-09T08:54:28.005Z,22.56
2018-07-09T08:56:55.331Z,22.69
2018-07-09T08:59:22.435Z,22.94
2018-07-09T09:01:49.733Z,23.28
2018-07-09T09:04:17.014Z,23.38
2018-07-09T09:06:44.844Z,23.48
2018-07-09T09:09:12.248Z,23.23
2018-07-09T09:11:40.242Z,23.42
2018-07-09T09:14:07.350Z,23.67
2018-07-09T09:16:34.567Z,23.66
2018-07-09T09:19:01.699Z,23.74
2018-07-09T09:21:29.915Z,24.02
2018-07-09T09:23:57.909Z,24.14
2018-07-09T09:26:25.027Z,23.94
2018-07-09T09:28:52.423Z,24.10
2018-07-09T09:31:19.857Z,23.83
2018-07-09T09:33:47.745Z,24.21
2018-07-09T09:36:15.056Z,24.56
2018-07-09T09:38:42.383Z,24.44
2018-07-09T09:41:09.545Z,25.37
2018-07-09T09:43:36.624Z,25.85
2018-07-09T09:46:03.808Z,26.05
2018-07-09T09:48:30.958Z,25.79
2018-07-09T09:50:58.059Z,26.03
2018-07-09T09:53:25.192Z,26.01
2018-07-09T09:55:52.327Z,26.16
2018-07-09T09:58:19.610Z,25.93
2018-07-09T10:00:48.965Z,25.34
2018-07-09T10:03:16.215Z,24.66
2018-07-09T10:05:43.857Z,24.29
2018-07-09T10:08:11.098Z,24.22
2018-07-09T10:10:38.236Z,24.13
2018-07-09T10:13:05.517Z,24.01
2018-07-09T10:15:32.673Z,24.50
2018-07-09T10:18:02.487Z,24.28
2018-07-09T10:20:30.034Z,24.81
2018-07-09T10:22:57.382Z,25.07
2018-07-09T10:25:24.728Z,24.66
2018-07-09T10:27:52.272Z,24.33
2018-07-09T10:30:21.195Z,24.40
2018-07-09T10:32:48.424Z,24.34
2018-07-09T10:35:16.102Z,24.16
2018-07-09T10:37:43.641Z,24.09
2018-07-09T10:40:10.799Z,24.02
2018-07-09T10:42:37.967Z,24.23
2018-07-09T10:45:05.253Z,24.28
2018-07-09T10:47:32.367Z,24.04
2018-07-09T10:49:59.507Z,24.00
2018-07-09T10:52:26.667Z,23.86
2018-07-09T10:54:53.872Z,24.06
2018-07-09T10:57:21.328Z,23.93
2018-07-09T10:59:48.744Z,24.29
2018-07-09T11:02:16.155Z,24.73
2018-07-09T11:04:44.542Z,25.32
2018-07-09T11:07:12.004Z,25.48
2018-07-09T11:09:39.823Z,25.92
2018-07-09T11:12:06.892Z,26.63
2018-07-09T11:14:34.067Z,27.26
2018-07-09T11:17:01.178Z,26.96
2018-07-09T11:19:28.320Z,26.65
2018-07-09T11:21:55.491Z,26.75
2018-07-09T11:24:22.730Z,27.46
2018-07-09T11:26:50.067Z,28.29
2018-07-09T11:29:17.545Z,28.61
2018-07-09T11:31:44.876Z,28.81
2018-07-09T11:34:12.709Z,28.66
2018-07-09T11:36:39.990Z,28.54
2018-07-09T11:39:07.174Z,29.27
2018-07-09T11:41:34.292Z,28.90
2018-07-09T11:44:01.538Z,29.69
2018-07-09T11:46:28.654Z,30.05
2018-07-09T11:48:55.780Z,30.65
2018-07-09T11:51:22.998Z,30.84
2018-07-09T11:53:50.557Z,32.14
2018-07-09T11:56:17.898Z,33.08
2018-07-09T11:58:45.457Z,32.91
2018-07-09T12:01:12.881Z,32.28
2018-07-09T12:03:40.034Z,32.54
2018-07-09T12:06:07.245Z,32.51
2018-07-09T12:08:34.409Z,30.35
2018-07-09T12:11:01.535Z,29.32
2018-07-09T12:13:28.672Z,28.17
2018-07-09T12:15:56.805Z,27.65
2018-07-09T12:18:23.944Z,27.30
2018-07-09T12:20:51.376Z,26.92
2018-07-09T12:23:18.796Z,26.98
2018-07-09T12:25:46.258Z,27.07
2018-07-09T12:28:14.180Z,27.13
2018-07-09T12:30:41.936Z,27.13
2018-07-09T12:33:09.120Z,27.28
2018-07-09T12:35:36.349Z,27.36
2018-07-09T12:38:03.556Z,27.04
2018-07-09T12:40:30.701Z,26.31
2018-07-09T12:42:59.179Z,26.29
2018-07-09T12:45:26.652Z,25.99
2018-07-09T12:47:54.154Z,25.89
2018-07-09T12:50:21.512Z,25.67
2018-07-09T12:52:59.614Z,25.46
2018-07-09T12:55:26.824Z,25.24
2018-07-09T12:57:54.038Z,25.22
2018-07-09T13:00:21.462Z,25.30
2018-07-09T13:02:48.753Z,25.38
2018-07-09T13:05:16.172Z,25.36
2018-07-09T13:07:43.669Z,25.62
2018-07-09T13:10:10.827Z,24.99
2018-07-09T13:12:37.947Z,25.18
2018-07-09T13:15:05.297Z,25.15
2018-07-09T13:17:32.788Z,25.25
2018-07-09T13:20:00.558Z,25.24
2018-07-09T13:22:27.597Z,25.28
2018-07-09T13:24:54.776Z,25.24
2018-07-09T13:27:22.160Z,25.39
2018-07-09T13:29:50.484Z,25.64
2018-07-09T13:32:17.867Z,25.86
2018-07-09T13:34:45.376Z,25.87
2018-07-09T13:37:12.722Z,25.95
2018-07-09T13:39:39.936Z,26.04
2018-07-09T13:42:07.093Z,26.30
2018-07-09T13:44:34.251Z,26.49
2018-07-09T13:47:01.537Z,26.43
2018-07-09T13:49:28.970Z,26.57
2018-07-09T13:51:56.111Z,26.69
2018-07-09T13:54:23.320Z,26.63
2018-07-09T13:56:50.648Z,26.45
2018-07-09T13:59:18.066Z,25.85
2018-07-09T14:01:45.585Z,25.95
2018-07-09T14:04:14.116Z,26.14
2018-07-09T14:06:43.756Z,26.76
2018-07-09T14:09:11.153Z,26.25
2018-07-09T14:11:38.810Z,26.65
2018-07-09T14:14:06.799Z,26.65
2018-07-09T14:16:34.079Z,26.64
2018-07-09T14:19:11.496Z,26.82
2018-07-09T14:21:39.901Z,26.50
2018-07-09T14:24:07.557Z,26.51
2018-07-09T14:26:34.695Z,26.61
2018-07-09T14:29:02.104Z,26.46
2018-07-09T14:31:29.245Z,26.06
2018-07-09T14:33:56.363Z,26.46
2018-07-09T14:36:24.735Z,26.15
2018-07-09T14:38:52.236Z,26.04
2018-07-09T14:41:19.760Z,26.29
2018-07-09T14:43:47.636Z,26.09
2018-07-09T14:46:15.498Z,25.87
2018-07-09T14:48:43.274Z,25.72
2018-07-09T14:51:10.455Z,26.15
2018-07-09T14:53:38.487Z,26.53
2018-07-09T14:56:05.658Z,26.46
2018-07-09T14:58:32.916Z,25.61
2018-07-09T15:01:00.062Z,25.55
2018-07-09T15:03:27.253Z,25.69
2018-07-09T15:05:54.502Z,25.66
2018-07-09T15:08:21.837Z,25.12
2018-07-09T15:10:49.546Z,25.14
2018-07-09T15:13:17.923Z,27.11
2018-07-09T15:15:45.797Z,29.14
2018-07-09T15:18:13.022Z,29.10
2018-07-09T15:20:41.340Z,28.75
2018-07-09T15:23:08.429Z,27.35
2018-07-09T15:25:35.648Z,27.05
2018-07-09T15:28:02.796Z,27.90
2018-07-09T15:30:31.183Z,28.88
2018-07-09T15:32:58.387Z,29.20
2018-07-09T15:35:25.679Z,29.42
2018-07-09T15:37:53.114Z,29.29
2018-07-09T15:40:20.519Z,28.51
2018-07-09T15:42:50.108Z,28.39
2018-07-09T15:45:17.961Z,27.94
2018-07-09T15:47:46.625Z,27.56
2018-07-09T15:50:15.491Z,27.26
2018-07-09T15:52:47.406Z,27.46
2018-07-09T15:55:15.418Z,27.96
2018-07-09T15:57:42.777Z,28.31
2018-07-09T16:00:10.093Z,28.06
2018-07-09T16:02:37.292Z,27.61
2018-07-09T16:05:04.481Z,27.18
2018-07-09T16:07:31.620Z,26.96
2018-07-09T16:09:58.788Z,26.76
2018-07-09T16:12:25.995Z,26.66
2018-07-09T16:14:53.534Z,26.28
2018-07-09T16:17:21.152Z,26.16
2018-07-09T16:19:48.997Z,25.75
2018-07-09T16:22:16.809Z,25.86
2018-07-09T16:24:44.461Z,25.69
2018-07-09T16:27:11.648Z,25.44
2018-07-09T16:29:38.879Z,25.29
2018-07-09T16:32:06.421Z,24.91
2018-07-09T16:34:33.605Z,24.70
2018-07-09T16:37:00.744Z,24.90
2018-07-09T16:39:27.984Z,24.72
2018-07-09T16:41:55.276Z,24.77
2018-07-09T16:44:23.835Z,24.79
2018-07-09T16:46:51.278Z,24.75
2018-07-09T16:49:19.289Z,24.77
2018-07-09T16:51:47.097Z,24.87
2018-07-09T16:54:14.815Z,24.88
2018-07-09T16:56:42.038Z,24.79
2018-07-09T16:59:09.165Z,24.93
2018-07-09T17:01:36.363Z,25.13
2018-07-09T17:04:03.532Z,25.27
2018-07-09T17:06:30.649Z,25.35
2018-07-09T17:08:57.760Z,25.54
2018-07-09T17:11:25.299Z,25.28
2018-07-09T17:13:53.079Z,25.35
2018-07-09T17:16:20.428Z,25.27
2018-07-09T17:18:48.735Z,25.39
2018-07-09T17:21:16.154Z,25.38
2018-07-09T17:23:43.304Z,25.14
2018-07-09T17:26:10.511Z,25.13
2018-07-09T17:28:37.630Z,25.02
2018-07-09T17:31:04.733Z,24.80
2018-07-09T17:33:34.323Z,24.61
2018-07-09T17:36:01.452Z,24.47
2018-07-09T17:38:28.668Z,24.26
2018-07-09T17:40:55.837Z,24.17
2018-07-09T17:43:23.245Z,24.11
2018-07-09T17:45:50.584Z,23.95
2018-07-09T17:48:18.502Z,23.90
2018-07-09T17:50:46.031Z,23.87
2018-07-09T17:53:13.162Z,23.86
2018-07-09T17:55:40.363Z,23.79
2018-07-09T17:58:08.513Z,23.68
2018-07-09T18:00:35.681Z,23.66
2018-07-09T18:03:05.237Z,23.54
2018-07-09T18:05:32.349Z,23.61
2018-07-09T18:08:00.446Z,23.54
2018-07-09T18:10:27.702Z,23.58
2018-07-09T18:12:55.093Z,23.39
2018-07-09T18:15:22.388Z,23.23
2018-07-09T18:17:49.616Z,22.85
2018-07-09T18:20:17.883Z,22.54
2018-07-09T18:22:45.042Z,22.31
2018-07-09T18:25:12.183Z,22.11
2018-07-09T18:27:39.492Z,21.94
2018-07-09T18:30:06.648Z,21.81
2018-07-09T18:32:33.929Z,21.69
2018-07-09T18:35:01.433Z,21.64
2018-07-09T18:37:29.788Z,21.54
2018-07-09T18:39:57.148Z,21.56
2018-07-09T18:42:24.860Z,21.39
2018-07-09T18:44:52.916Z,21.25
2018-07-09T18:47:20.215Z,21.10
2018-07-09T18:49:47.337Z,21.06
2018-07-09T18:52:14.472Z,20.96
2018-07-09T18:54:41.643Z,20.94
2018-07-09T18:57:09.744Z,20.86
2018-07-09T18:59:36.861Z,20.78
2018-07-09T19:02:04.212Z,20.79
2018-07-09T19:04:31.364Z,20.63
2018-07-09T19:07:02.068Z,20.47
2018-07-09T19:09:31.743Z,20.41
2018-07-09T19:11:59.896Z,20.35
2018-07-09T19:14:45.198Z,20.27
2018-07-09T19:17:52.872Z,20.26
2018-07-09T19:20:31.566Z,20.14
2018-07-09T19:22:58.034Z,20.08
2018-07-09T19:25:24.558Z,19.95
2018-07-09T19:27:51.475Z,19.92
2018-07-09T19:30:17.784Z,19.75
2018-07-09T19:32:44.435Z,19.81
2018-07-09T19:35:10.913Z,19.69
2018-07-09T19:37:37.444Z,19.54
2018-07-09T19:40:03.288Z,19.49
2018-07-09T19:42:30.277Z,19.47
2018-07-09T19:44:56.873Z,19.41
2018-07-09T19:47:24.564Z,19.30
2018-07-09T19:49:51.393Z,19.23
2018-07-09T19:52:17.935Z,19.24
2018-07-09T19:54:44.278Z,19.17
2018-07-09T19:57:10.550Z,19.16
2018-07-09T19:59:36.871Z,19.10
2018-07-09T20:02:03.651Z,19.05
2018-07-09T20:04:29.904Z,19.04
2018-07-09T20:06:56.316Z,19.09
2018-07-09T20:09:28.693Z,19.02
2018-07-09T20:12:01.566Z,18.96
2018-07-09T20:14:33.666Z,18.86
2018-07-09T20:17:05.725Z,18.85
2018-07-09T20:19:32.116Z,18.81
2018-07-09T20:21:58.636Z,18.80
2018-07-09T20:24:25.711Z,18.82
2018-07-09T20:26:52.056Z,18.78
2018-07-09T20:29:18.643Z,18.72
2018-07-09T20:31:46.794Z,18.76
2018-07-09T20:34:13.763Z,18.73
2018-07-09T20:36:39.975Z,18.77
2018-07-09T20:39:06.963Z,18.61
2018-07-09T20:41:33.742Z,18.64
2018-07-09T20:44:00.542Z,18.58
2018-07-09T20:46:26.816Z,18.55
2018-07-09T20:48:53.127Z,18.48
2018-07-09T20:51:19.568Z,18.46
2018-07-09T20:53:46.199Z,18.40
2018-07-09T20:56:12.510Z,18.42
2018-07-09T20:58:38.880Z,18.33
2018-07-09T21:01:05.175Z,18.41
2018-07-09T21:03:31.320Z,18.26
2018-07-09T21:05:57.503Z,18.22
2018-07-09T21:08:23.748Z,18.21
2018-07-09T21:10:50.037Z,18.09
2018-07-09T21:13:16.428Z,18.05
2018-07-09T21:15:42.914Z,17.99
2018-07-09T21:18:09.184Z,18.02
2018-07-09T21:20:35.424Z,17.84
2018-07-09T21:23:01.640Z,17.87
2018-07-09T21:25:27.783Z,17.80
2018-07-09T21:27:53.948Z,17.81
2018-07-09T21:30:20.214Z,17.71
2018-07-09T21:32:46.450Z,17.71
2018-07-09T21:35:13.461Z,17.63
2018-07-09T21:37:39.861Z,17.69
2018-07-09T21:40:06.048Z,17.63
2018-07-09T21:42:32.285Z,17.53
2018-07-09T21:44:58.648Z,17.47
2018-07-09T21:47:24.946Z,17.46
2018-07-09T21:49:51.389Z,17.47
2018-07-09T21:52:17.680Z,17.59
2018-07-09T21:54:43.847Z,17.41
2018-07-09T21:57:10.106Z,17.35
2018-07-09T21:59:36.289Z,17.46
2018-07-09T22:02:02.427Z,17.51
2018-07-09T22:04:29.731Z,17.34
2018-07-09T22:06:56.035Z,17.31
2018-07-09T22:09:22.359Z,17.22
2018-07-09T22:11:48.509Z,17.32
2018-07-09T22:14:14.687Z,17.27
2018-07-09T22:16:40.825Z,17.25
2018-07-09T22:19:07.790Z,17.23
2018-07-09T22:21:34.036Z,17.23
2018-07-09T22:24:00.570Z,17.05
2018-07-09T22:26:26.827Z,16.96
2018-07-09T22:28:53.541Z,16.95
2018-07-09T22:31:21.765Z,16.87
2018-07-09T22:33:49.185Z,16.81
2018-07-09T22:36:16.757Z,16.75
2018-07-09T22:38:44.265Z,16.72
2018-07-09T22:41:11.446Z,16.69
2018-07-09T22:43:50.342Z,16.63
2018-07-09T22:46:18.851Z,16.59
2018-07-09T22:48:46.384Z,16.58
2018-07-09T22:51:13.784Z,16.57
2018-07-09T22:53:40.840Z,16.63
2018-07-09T22:56:10.117Z,16.53
2018-07-09T22:58:38.542Z,16.49
2018-07-09T23:01:05.676Z,16.45
2018-07-09T23:03:32.784Z,16.50
2018-07-09T23:05:59.956Z,16.51
2018-07-09T23:08:27.051Z,16.48
2018-07-09T23:11:30.756Z,16.53
2018-07-09T23:16:10.739Z,16.54
2018-07-09T23:19:02.215Z,16.55
2018-07-09T23:21:43.331Z,16.47
2018-07-09T23:24:09.669Z,16.44
2018-07-09T23:26:35.812Z,16.57
2018-07-09T23:29:01.970Z,16.54
2018-07-09T23:31:28.171Z,16.56
2018-07-09T23:33:54.357Z,16.57
2018-07-09T23:36:21.937Z,16.59
2018-07-09T23:38:48.385Z,16.59
2018-07-09T23:41:14.677Z,16.55
2018-07-09T23:43:40.957Z,16.60
2018-07-09T23:46:07.212Z,16.71
2018-07-09T23:48:33.365Z,16.79
2018-07-09T23:50:59.600Z,16.62
2018-07-09T23:53:25.758Z,16.56
2018-07-09T23:56:01.379Z,16.51
2018-07-09T23:59:45.280Z,16.52
